createdAt,value
2019-06-20T00:01:39.009Z,99599.10
2019-06-20T00:04:07.431Z,99607.00
2019-06-20T00:06:35.871Z,99605.96
2019-06-20T00:09:06.051Z,99605.35
2019-06-20T00:11:34.609Z,99601.48
2019-06-20T00:14:03.137Z,99599.79
2019-06-20T00:16:31.595Z,99604.49
2019-06-20T00:19:00.021Z,99606.59
2019-06-20T00:21:28.449Z,99596.90
2019-06-20T00:23:56.897Z,99601.73
2019-06-20T00:26:25.335Z,99592.86
2019-06-20T00:28:53.765Z,99600.19
2019-06-20T00:31:22.412Z,99599.61
2019-06-20T00:33:50.828Z,99607.04
2019-06-20T00:36:19.443Z,99616.90
2019-06-20T00:38:48.014Z,99615.00
2019-06-20T00:41:16.436Z,99618.69
2019-06-20T00:43:44.937Z,99626.38
2019-06-20T00:46:13.531Z,99620.74
2019-06-20T00:48:41.957Z,99623.59
2019-06-20T00:51:10.458Z,99630.16
2019-06-20T00:53:39.010Z,99621.16
2019-06-20T00:56:07.602Z,99633.02
2019-06-20T00:58:36.041Z,99622.69
2019-06-20T01:01:04.563Z,99625.66
2019-06-20T01:03:32.988Z,99626.20
2019-06-20T01:06:01.581Z,99632.78
2019-06-20T01:08:30.090Z,99630.89
2019-06-20T01:10:58.530Z,99627.23
2019-06-20T01:13:33.418Z,99627.77
2019-06-20T01:15:57.254Z,99629.13
2019-06-20T01:18:25.650Z,99631.79
2019-06-20T01:20:54.254Z,99631.07
2019-06-20T01:23:22.704Z,99627.37
2019-06-20T01:25:51.769Z,99629.39
2019-06-20T01:28:20.197Z,99632.09
2019-06-20T01:30:48.971Z,99634.13
2019-06-20T01:33:17.400Z,99640.34
2019-06-20T01:35:47.213Z,99644.39
2019-06-20T01:38:15.798Z,99644.02
2019-06-20T01:40:44.529Z,99642.53
2019-06-20T01:43:13.073Z,99647.22
2019-06-20T01:45:41.692Z,99648.17
2019-06-20T01:48:10.133Z,99645.71
2019-06-20T01:50:38.631Z,99657.91
2019-06-20T01:53:07.184Z,99659.45
2019-06-20T01:55:35.661Z,99657.36
2019-06-20T01:58:04.154Z,99660.05
2019-06-20T02:00:50.333Z,99655.88
2019-06-20T02:03:20.394Z,99652.33
2019-06-20T02:05:48.957Z,99653.45
2019-06-20T02:08:17.790Z,99656.29
2019-06-20T02:10:47.262Z,99655.30
2019-06-20T02:13:15.767Z,99656.41
2019-06-20T02:15:44.330Z,99650.70
2019-06-20T02:18:12.892Z,99655.58
2019-06-20T02:20:56.128Z,99661.98
2019-06-20T02:23:24.786Z,99669.68
2019-06-20T02:25:53.256Z,99665.17
2019-06-20T02:28:22.688Z,99663.55
2019-06-20T02:30:51.518Z,99667.63
2019-06-20T02:33:20.019Z,99676.58
2019-06-20T02:35:48.806Z,99675.16
2019-06-20T02:38:17.245Z,99688.75
2019-06-20T02:40:45.730Z,99688.97
2019-06-20T02:43:14.305Z,99687.11
2019-06-20T02:45:42.997Z,99690.13
2019-06-20T02:48:11.546Z,99694.34
2019-06-20T02:50:40.072Z,99687.34
2019-06-20T02:53:08.637Z,99689.88
2019-06-20T02:55:37.131Z,99693.92
2019-06-20T02:58:05.855Z,99698.94
2019-06-20T03:00:55.646Z,99696.51
2019-06-20T03:03:24.271Z,99698.53
2019-06-20T03:05:53.874Z,99710.22
2019-06-20T03:08:22.544Z,99713.94
2019-06-20T03:10:51.065Z,99715.25
2019-06-20T03:13:19.667Z,99717.74
2019-06-20T03:15:50.087Z,99721.30
2019-06-20T03:18:18.410Z,99725.56
2019-06-20T03:20:46.898Z,99733.57
2019-06-20T03:23:15.492Z,99744.25
2019-06-20T03:25:44.014Z,99742.92
2019-06-20T03:28:12.518Z,99745.03
2019-06-20T03:30:40.943Z,99746.66
2019-06-20T03:33:09.440Z,99746.98
2019-06-20T03:35:37.862Z,99749.08
2019-06-20T03:38:06.427Z,99748.54
2019-06-20T03:40:34.946Z,99740.13
2019-06-20T03:43:03.370Z,99748.59
2019-06-20T03:45:31.794Z,99747.78
2019-06-20T03:48:00.425Z,99751.63
2019-06-20T03:50:28.924Z,99757.47
2019-06-20T03:53:02.871Z,99762.91
2019-06-20T03:55:34.567Z,99762.50
2019-06-20T03:58:03.267Z,99768.74
2019-06-20T04:00:35.884Z,99770.91
2019-06-20T04:03:05.857Z,99775.43
2019-06-20T04:05:35.217Z,99779.83
2019-06-20T04:08:03.700Z,99781.02
2019-06-20T04:10:32.221Z,99785.70
2019-06-20T04:13:00.646Z,99787.25
2019-06-20T04:15:29.262Z,99789.82
2019-06-20T04:17:57.887Z,99792.10
2019-06-20T04:20:26.480Z,99792.27
2019-06-20T04:22:54.913Z,99797.56
2019-06-20T04:25:23.416Z,99793.00
2019-06-20T04:27:51.975Z,99796.16
2019-06-20T04:30:20.587Z,99799.10
2019-06-20T04:32:49.080Z,99798.44
2019-06-20T04:35:17.523Z,99800.65
2019-06-20T04:37:46.064Z,99806.78
2019-06-20T04:40:15.918Z,99799.19
2019-06-20T04:42:44.410Z,99803.91
2019-06-20T04:45:14.938Z,99797.36
2019-06-20T04:47:43.394Z,99798.09
2019-06-20T04:50:11.884Z,99807.84
2019-06-20T04:52:40.334Z,99801.14
2019-06-20T04:55:08.839Z,99799.36
2019-06-20T04:57:37.266Z,99795.83
2019-06-20T05:00:07.634Z,99798.50
2019-06-20T05:02:36.269Z,99802.81
2019-06-20T05:05:06.222Z,99801.20
2019-06-20T05:07:34.760Z,99806.09
2019-06-20T05:10:04.645Z,99813.84
2019-06-20T05:12:33.148Z,99811.68
2019-06-20T05:15:01.659Z,99817.17
2019-06-20T05:17:30.437Z,99815.14
2019-06-20T05:19:58.876Z,99819.23
2019-06-20T05:22:27.311Z,99815.77
2019-06-20T05:24:55.893Z,99812.53
2019-06-20T05:27:24.399Z,99819.72
2019-06-20T05:29:52.813Z,99830.33
2019-06-20T05:32:21.492Z,99834.29
2019-06-20T05:34:49.989Z,99830.00
2019-06-20T05:37:18.432Z,99835.20
2019-06-20T05:39:46.917Z,99839.97
2019-06-20T05:42:15.334Z,99833.96
2019-06-20T05:44:43.765Z,99837.33
2019-06-20T05:47:14.053Z,99834.86
2019-06-20T05:49:42.664Z,99839.44
2019-06-20T05:52:11.110Z,99836.92
2019-06-20T05:54:39.886Z,99839.16
2019-06-20T05:57:08.310Z,99836.80
2019-06-20T05:59:36.737Z,99836.13
2019-06-20T06:02:05.354Z,99840.93
2019-06-20T06:04:33.843Z,99838.97
2019-06-20T06:07:02.378Z,99830.11
2019-06-20T06:09:31.166Z,99844.06
2019-06-20T06:11:59.654Z,99829.77
2019-06-20T06:14:28.074Z,99835.85
2019-06-20T06:16:56.557Z,99831.75
2019-06-20T06:19:25.006Z,99832.75
2019-06-20T06:21:53.802Z,99833.41
2019-06-20T06:24:22.397Z,99832.02
2019-06-20T06:26:51.092Z,99835.28
2019-06-20T06:29:19.519Z,99831.50
2019-06-20T06:31:48.035Z,99832.94
2019-06-20T06:34:16.442Z,99826.76
2019-06-20T06:36:45.056Z,99829.51
2019-06-20T06:39:13.512Z,99832.16
2019-06-20T06:41:41.945Z,99836.49
2019-06-20T06:44:10.492Z,99836.48
2019-06-20T06:46:45.910Z,99839.28
2019-06-20T06:49:09.163Z,99833.05
2019-06-20T06:51:38.348Z,99839.97
2019-06-20T06:54:07.032Z,99836.41
2019-06-20T06:56:35.543Z,99838.47
2019-06-20T06:59:04.334Z,99837.63
2019-06-20T07:01:32.911Z,99839.27
2019-06-20T07:04:01.437Z,99843.78
2019-06-20T07:06:29.908Z,99842.98
2019-06-20T07:08:58.413Z,99836.42
2019-06-20T07:11:26.894Z,99847.92
2019-06-20T07:13:55.337Z,99840.44
2019-06-20T07:16:23.854Z,99834.25
2019-06-20T07:18:53.383Z,99840.22
2019-06-20T07:21:22.359Z,99838.58
2019-06-20T07:23:50.885Z,99844.41
2019-06-20T07:26:19.317Z,99846.11
2019-06-20T07:28:51.334Z,99852.99
2019-06-20T07:31:17.929Z,99855.66
2019-06-20T07:33:46.424Z,99853.81
2019-06-20T07:36:14.859Z,99863.95
2019-06-20T07:38:43.336Z,99857.47
2019-06-20T07:41:11.789Z,99858.50
2019-06-20T07:43:40.173Z,99861.66
2019-06-20T07:46:08.692Z,99856.47
2019-06-20T07:48:37.122Z,99860.19
2019-06-20T07:51:05.617Z,99856.80
2019-06-20T07:53:34.192Z,99856.19
2019-06-20T07:56:02.638Z,99859.50
2019-06-20T07:58:31.064Z,99851.95
2019-06-20T08:00:59.515Z,99858.98
2019-06-20T08:03:28.083Z,99858.36
2019-06-20T08:05:56.547Z,99861.43
2019-06-20T08:08:25.166Z,99860.55
2019-06-20T08:10:53.595Z,99861.27
2019-06-20T08:13:22.114Z,99865.56
2019-06-20T08:15:51.089Z,99864.57
2019-06-20T08:18:19.530Z,99864.69
2019-06-20T08:20:48.045Z,99867.58
2019-06-20T08:23:16.547Z,99869.01
2019-06-20T08:25:45.049Z,99862.33
2019-06-20T08:28:13.478Z,99862.95
2019-06-20T08:30:42.125Z,99864.28
2019-06-20T08:33:12.251Z,99858.84
2019-06-20T08:35:41.005Z,99858.47
2019-06-20T08:38:09.516Z,99853.00
2019-06-20T08:40:41.326Z,99852.22
2019-06-20T08:43:10.294Z,99855.06
2019-06-20T08:45:39.983Z,99856.86
2019-06-20T08:48:08.553Z,99852.14
2019-06-20T08:50:37.162Z,99855.52
2019-06-20T08:53:06.359Z,99855.66
2019-06-20T08:55:35.723Z,99856.49
2019-06-20T08:58:05.591Z,99855.50
2019-06-20T09:00:36.823Z,99852.82
2019-06-20T09:03:06.601Z,99847.22
2019-06-20T09:05:35.580Z,99845.11
2019-06-20T09:08:05.545Z,99843.41
2019-06-20T09:10:39.749Z,99849.27
2019-06-20T09:13:09.144Z,99852.70
2019-06-20T09:15:37.912Z,99844.39
2019-06-20T09:18:07.011Z,99848.07
2019-06-20T09:20:36.145Z,99851.60
2019-06-20T09:23:05.787Z,99844.99
2019-06-20T09:25:34.379Z,99854.11
2019-06-20T09:28:03.192Z,99848.57
2019-06-20T09:30:31.776Z,99853.48
2019-06-20T09:33:00.275Z,99852.08
2019-06-20T09:35:28.806Z,99846.07
2019-06-20T09:37:57.241Z,99845.29
2019-06-20T09:40:26.003Z,99848.34
2019-06-20T09:42:54.545Z,99859.84
2019-06-20T09:45:23.388Z,99858.34
2019-06-20T09:47:52.249Z,99850.34
2019-06-20T09:50:21.803Z,99860.37
2019-06-20T09:52:51.599Z,99861.36
2019-06-20T09:55:20.545Z,99858.98
2019-06-20T09:57:50.484Z,99859.54
2019-06-20T10:00:25.673Z,99855.56
2019-06-20T10:02:55.880Z,99853.50
2019-06-20T10:05:24.768Z,99855.22
2019-06-20T10:07:54.518Z,99850.31
2019-06-20T10:10:26.239Z,99854.69
2019-06-20T10:12:55.787Z,99857.66
2019-06-20T10:15:27.053Z,99858.73
2019-06-20T10:17:55.909Z,99857.16
2019-06-20T10:20:25.044Z,99864.25
2019-06-20T10:22:54.361Z,99860.13
2019-06-20T10:25:23.635Z,99856.05
2019-06-20T10:27:53.568Z,99858.27
2019-06-20T10:30:24.283Z,99854.09
2019-06-20T10:32:53.327Z,99850.33
2019-06-20T10:35:22.778Z,99855.05
2019-06-20T10:37:52.722Z,99851.48
2019-06-20T10:40:23.464Z,99854.75
2019-06-20T10:42:52.981Z,99850.55
2019-06-20T10:45:23.998Z,99850.56
2019-06-20T10:47:53.106Z,99846.78
2019-06-20T10:50:22.429Z,99853.34
2019-06-20T10:52:51.889Z,99858.11
2019-06-20T10:55:21.217Z,99852.43
2019-06-20T10:57:50.088Z,99848.05
2019-06-20T11:00:30.903Z,99845.67
2019-06-20T11:02:53.553Z,99844.22
2019-06-20T11:05:22.402Z,99846.02
2019-06-20T11:07:51.167Z,99847.68
2019-06-20T11:10:20.369Z,99844.43
2019-06-20T11:12:54.918Z,99852.34
2019-06-20T11:15:20.600Z,99854.09
2019-06-20T11:17:49.126Z,99856.84
2019-06-20T11:20:18.299Z,99848.66
2019-06-20T11:22:47.830Z,99844.95
2019-06-20T11:25:19.264Z,99837.06
2019-06-20T11:27:47.807Z,99849.55
2019-06-20T11:30:19.686Z,99841.89
2019-06-20T11:32:49.166Z,99856.50
2019-06-20T11:35:18.338Z,99851.20
2019-06-20T11:37:47.227Z,99852.65
2019-06-20T11:40:16.887Z,99847.98
2019-06-20T11:42:46.769Z,99847.35
2019-06-20T11:45:15.911Z,99851.95
2019-06-20T11:47:44.525Z,99845.60
2019-06-20T11:50:13.491Z,99839.89
2019-06-20T11:52:44.296Z,99837.32
2019-06-20T11:55:12.539Z,99839.28
2019-06-20T11:57:41.107Z,99846.06
2019-06-20T12:00:09.753Z,99840.95
2019-06-20T12:02:40.477Z,99839.51
2019-06-20T12:05:09.866Z,99844.44
2019-06-20T12:07:39.625Z,99841.67
2019-06-20T12:10:09.657Z,99833.81
2019-06-20T12:12:39.566Z,99827.94
2019-06-20T12:15:09.436Z,99822.98
2019-06-20T12:17:41.026Z,99821.55
2019-06-20T12:20:09.946Z,99816.23
2019-06-20T12:22:39.949Z,99821.52
2019-06-20T12:25:09.819Z,99827.98
2019-06-20T12:27:38.806Z,99825.38
2019-06-20T12:30:09.126Z,99821.52
2019-06-20T12:32:37.594Z,99820.22
2019-06-20T12:35:06.562Z,99818.77
2019-06-20T12:37:35.072Z,99809.78
2019-06-20T12:40:05.204Z,99806.72
2019-06-20T12:42:33.673Z,99809.26
2019-06-20T12:45:02.121Z,99801.13
2019-06-20T12:47:30.576Z,99803.84
2019-06-20T12:49:59.046Z,99802.50
2019-06-20T12:52:27.573Z,99799.39
2019-06-20T12:54:56.051Z,99812.19
2019-06-20T12:57:24.621Z,99814.57
2019-06-20T12:59:53.313Z,99813.83
2019-06-20T13:02:21.840Z,99813.08
2019-06-20T13:04:50.622Z,99813.55
2019-06-20T13:07:19.127Z,99813.19
2019-06-20T13:09:48.341Z,99817.15
2019-06-20T13:12:16.899Z,99811.80
2019-06-20T13:14:45.628Z,99812.32
2019-06-20T13:17:14.283Z,99800.20
2019-06-20T13:19:44.119Z,99802.63
2019-06-20T13:22:12.917Z,99798.83
2019-06-20T13:24:42.731Z,99797.69
2019-06-20T13:27:11.258Z,99791.42
2019-06-20T13:29:40.796Z,99785.58
2019-06-20T13:32:09.408Z,99783.30
2019-06-20T13:34:39.872Z,99783.73
2019-06-20T13:37:08.641Z,99771.73
2019-06-20T13:39:38.506Z,99764.08
2019-06-20T13:42:07.359Z,99757.29
2019-06-20T13:44:35.779Z,99757.87
2019-06-20T13:47:04.375Z,99756.38
2019-06-20T13:49:32.952Z,99760.44
2019-06-20T13:52:01.387Z,99773.79
2019-06-20T13:54:29.958Z,99781.00
2019-06-20T13:56:58.408Z,99790.55
2019-06-20T13:59:26.907Z,99791.23
2019-06-20T14:02:06.219Z,99837.54
2019-06-20T14:04:25.584Z,99837.12
2019-06-20T14:06:54.175Z,99838.33
2019-06-20T14:09:22.702Z,99840.79
2019-06-20T14:11:51.429Z,99832.58
2019-06-20T14:14:20.042Z,99836.47
2019-06-20T14:16:48.641Z,99839.11
2019-06-20T14:19:17.241Z,99833.70
2019-06-20T14:21:45.737Z,99833.21
2019-06-20T14:24:14.222Z,99824.33
2019-06-20T14:26:44.790Z,99823.64
2019-06-20T14:29:12.979Z,99817.11
2019-06-20T14:31:42.626Z,99807.71
2019-06-20T14:34:11.798Z,99806.50
2019-06-20T14:36:40.220Z,99811.06
2019-06-20T14:39:08.950Z,99809.62
2019-06-20T14:41:37.451Z,99806.65
2019-06-20T14:44:06.045Z,99807.33
2019-06-20T14:46:34.544Z,99807.19
2019-06-20T14:49:02.975Z,99794.03
2019-06-20T14:51:31.473Z,99793.29
2019-06-20T14:54:01.612Z,99789.27
2019-06-20T14:56:30.059Z,99792.47
2019-06-20T14:58:58.517Z,99787.92
2019-06-20T15:01:26.990Z,99791.41
2019-06-20T15:03:56.033Z,99786.98
2019-06-20T15:06:24.657Z,99794.41
2019-06-20T15:09:01.249Z,99781.51
2019-06-20T15:11:23.281Z,99793.89
2019-06-20T15:13:51.720Z,99790.30
2019-06-20T15:16:20.250Z,99796.44
2019-06-20T15:18:51.978Z,99797.80
2019-06-20T15:21:18.846Z,99800.73
2019-06-20T15:23:49.095Z,99803.59
2019-06-20T15:26:17.474Z,99798.88
2019-06-20T15:28:47.510Z,99805.39
2019-06-20T15:31:16.122Z,99807.11
2019-06-20T15:33:44.637Z,99804.06
2019-06-20T15:36:13.136Z,99804.34
2019-06-20T15:38:41.609Z,99807.70
2019-06-20T15:41:12.454Z,99809.83
2019-06-20T15:43:40.282Z,99809.84
2019-06-20T15:46:08.885Z,99808.12
2019-06-20T15:48:37.335Z,99815.54
2019-06-20T15:51:05.762Z,99808.11
2019-06-20T15:53:34.288Z,99815.66
2019-06-20T15:56:02.709Z,99816.41
2019-06-20T15:58:31.157Z,99819.47
2019-06-20T16:00:59.621Z,99816.25
2019-06-20T16:03:28.065Z,99820.92
2019-06-20T16:05:56.571Z,99819.34
2019-06-20T16:08:25.111Z,99821.50
2019-06-20T16:10:53.603Z,99820.92
2019-06-20T16:13:22.042Z,99818.97
2019-06-20T16:15:51.236Z,99823.13
2019-06-20T16:18:19.682Z,99822.66
2019-06-20T16:20:48.117Z,99820.48
2019-06-20T16:23:16.578Z,99827.00
2019-06-20T16:25:45.075Z,99825.85
2019-06-20T16:28:13.514Z,99824.88
2019-06-20T16:30:42.206Z,99830.89
2019-06-20T16:33:24.089Z,99828.66
2019-06-20T16:35:40.827Z,99838.34
2019-06-20T16:38:09.264Z,99843.34
2019-06-20T16:40:45.921Z,99836.75
2019-06-20T16:43:14.548Z,99839.42
2019-06-20T16:45:43.331Z,99846.52
2019-06-20T16:48:11.985Z,99845.39
2019-06-20T16:50:40.803Z,99848.74
2019-06-20T16:53:09.310Z,99840.15
2019-06-20T16:55:37.834Z,99849.88
2019-06-20T16:58:06.457Z,99855.10
2019-06-20T17:00:35.212Z,99854.05
2019-06-20T17:03:03.974Z,99856.27
2019-06-20T17:05:32.499Z,99860.77
2019-06-20T17:08:01.205Z,99866.72
2019-06-20T17:10:29.684Z,99864.64
2019-06-20T17:12:58.395Z,99866.53
2019-06-20T17:15:26.952Z,99880.00
2019-06-20T17:17:55.494Z,99879.80
2019-06-20T17:20:24.242Z,99886.77
2019-06-20T17:22:52.817Z,99888.28
2019-06-20T17:25:22.006Z,99886.21
2019-06-20T17:27:50.576Z,99893.96
2019-06-20T17:30:20.551Z,99899.14
2019-06-20T17:32:49.098Z,99903.30
2019-06-20T17:35:18.009Z,99906.88
2019-06-20T17:37:46.544Z,99911.25
2019-06-20T17:40:16.595Z,99919.44
2019-06-20T17:42:45.170Z,99914.93
2019-06-20T17:45:22.517Z,99922.80
2019-06-20T17:47:51.637Z,99925.94
2019-06-20T17:50:20.605Z,99930.67
2019-06-20T17:52:49.165Z,99935.56
2019-06-20T17:55:18.199Z,99927.09
2019-06-20T17:57:46.615Z,99943.36
2019-06-20T18:00:17.688Z,99946.41
2019-06-20T18:02:46.155Z,99947.22
2019-06-20T18:05:16.132Z,99946.84
2019-06-20T18:07:44.709Z,99955.34
2019-06-20T18:10:14.196Z,99962.73
2019-06-20T18:12:42.692Z,99961.64
2019-06-20T18:15:13.030Z,99970.47
2019-06-20T18:17:41.574Z,99968.03
2019-06-20T18:20:11.754Z,99968.09
2019-06-20T18:22:40.287Z,99976.73
2019-06-20T18:25:09.620Z,99978.59
2019-06-20T18:27:38.376Z,99980.50
2019-06-20T18:30:09.716Z,99979.29
2019-06-20T18:32:38.395Z,99982.98
2019-06-20T18:35:07.737Z,99993.23
2019-06-20T18:37:36.380Z,99996.68
2019-06-20T18:40:09.879Z,100001.88
2019-06-20T18:42:38.917Z,99999.88
2019-06-20T18:45:09.456Z,99995.88
2019-06-20T18:47:38.579Z,100001.38
2019-06-20T18:50:08.266Z,99995.02
2019-06-20T18:52:51.051Z,100007.73
2019-06-20T18:55:11.757Z,100016.23
2019-06-20T18:57:40.494Z,100024.14
2019-06-20T19:00:11.465Z,100026.23
2019-06-20T19:02:40.587Z,100030.19
2019-06-20T19:05:11.082Z,100037.84
2019-06-20T19:07:39.973Z,100040.33
2019-06-20T19:10:10.726Z,100049.80
2019-06-20T19:12:39.739Z,100053.97
2019-06-20T19:15:09.314Z,100054.43
2019-06-20T19:17:39.654Z,100065.75
2019-06-20T19:20:09.110Z,100066.85
2019-06-20T19:22:38.266Z,100067.84
2019-06-20T19:25:11.347Z,100070.13
2019-06-20T19:27:46.280Z,100069.70
2019-06-20T19:30:18.280Z,100068.53
2019-06-20T19:32:47.043Z,100068.86
2019-06-20T19:35:17.316Z,100073.91
2019-06-20T19:37:46.435Z,100071.02
2019-06-20T19:40:17.087Z,100078.70
2019-06-20T19:42:47.464Z,100079.80
2019-06-20T19:45:18.325Z,100083.56
2019-06-20T19:47:47.737Z,100091.65
2019-06-20T19:50:17.727Z,100092.88
2019-06-20T19:52:47.021Z,100096.02
2019-06-20T19:55:17.582Z,100101.11
2019-06-20T19:57:46.389Z,100104.59
2019-06-20T20:00:15.806Z,100112.30
2019-06-20T20:02:44.682Z,100099.08
2019-06-20T20:05:19.564Z,100101.83
2019-06-20T20:07:45.674Z,100102.98
2019-06-20T20:10:14.821Z,100114.91
2019-06-20T20:12:43.930Z,100118.95
2019-06-20T20:15:14.108Z,100118.72
2019-06-20T20:17:42.944Z,100123.45
2019-06-20T20:20:12.263Z,100122.94
2019-06-20T20:22:41.219Z,100120.75
2019-06-20T20:25:10.508Z,100126.88
2019-06-20T20:27:39.310Z,100129.20
2019-06-20T20:30:10.924Z,100131.38
2019-06-20T20:32:40.119Z,100129.08
2019-06-20T20:35:09.104Z,100130.58
2019-06-20T20:37:38.180Z,100126.65
2019-06-20T20:40:08.724Z,100134.85
2019-06-20T20:42:37.498Z,100131.94
2019-06-20T20:45:07.947Z,100128.72
2019-06-20T20:47:36.631Z,100140.23
2019-06-20T20:50:09.288Z,100142.34
2019-06-20T20:52:38.016Z,100140.02
2019-06-20T20:55:08.294Z,100135.52
2019-06-20T20:57:37.230Z,100127.99
2019-06-20T21:00:11.846Z,100135.03
2019-06-20T21:02:40.385Z,100134.44
2019-06-20T21:05:09.189Z,100136.82
2019-06-20T21:07:39.239Z,100138.81
2019-06-20T21:10:08.421Z,100139.37
2019-06-20T21:12:36.960Z,100144.06
2019-06-20T21:15:08.509Z,100139.41
2019-06-20T21:17:37.094Z,100136.72
2019-06-20T21:20:08.890Z,100144.70
2019-06-20T21:22:37.502Z,100146.98
2019-06-20T21:25:09.106Z,100145.62
2019-06-20T21:27:37.695Z,100150.13
2019-06-20T21:30:08.019Z,100145.77
2019-06-20T21:32:36.682Z,100152.19
2019-06-20T21:35:08.172Z,100149.09
2019-06-20T21:37:36.661Z,100153.45
2019-06-20T21:40:06.987Z,100154.02
2019-06-20T21:42:35.487Z,100161.06
2019-06-20T21:45:08.700Z,100160.91
2019-06-20T21:47:37.197Z,100161.17
2019-06-20T21:50:07.631Z,100161.49
2019-06-20T21:52:36.265Z,100168.66
2019-06-20T21:55:06.734Z,100173.58
2019-06-20T21:57:35.335Z,100176.35
2019-06-20T22:00:18.592Z,100180.30
2019-06-20T22:02:47.032Z,100187.91
2019-06-20T22:05:15.905Z,100187.03
2019-06-20T22:07:44.465Z,100187.14
2019-06-20T22:10:13.374Z,100191.55
2019-06-20T22:12:41.800Z,100194.05
2019-06-20T22:15:10.608Z,100197.87
2019-06-20T22:17:39.214Z,100191.85
2019-06-20T22:20:08.202Z,100191.81
2019-06-20T22:22:36.647Z,100198.38
2019-06-20T22:25:09.107Z,100193.03
2019-06-20T22:27:37.729Z,100196.43
2019-06-20T22:30:13.282Z,100195.50
2019-06-20T22:32:41.696Z,100199.16
2019-06-20T22:35:10.569Z,100203.05
2019-06-20T22:37:39.168Z,100202.06
2019-06-20T22:40:09.542Z,100209.27
2019-06-20T22:42:38.141Z,100211.20
2019-06-20T22:45:11.352Z,100211.83
2019-06-20T22:47:39.901Z,100215.23
2019-06-20T22:50:08.879Z,100215.23
2019-06-20T22:52:37.501Z,100215.95
2019-06-20T22:55:06.975Z,100216.54
2019-06-20T22:57:35.417Z,100222.91
2019-06-20T23:00:06.943Z,100231.41
2019-06-20T23:02:35.439Z,100225.56
2019-06-20T23:05:05.416Z,100237.05
2019-06-20T23:07:33.856Z,100234.16
2019-06-20T23:10:10.423Z,100241.81
2019-06-20T23:12:32.526Z,100245.98
2019-06-20T23:15:01.001Z,100242.67
2019-06-20T23:17:29.504Z,100246.06
2019-06-20T23:19:57.942Z,100248.00
2019-06-20T23:22:26.404Z,100245.62
2019-06-20T23:24:54.852Z,100242.34
2019-06-20T23:27:23.273Z,100239.85
2019-06-20T23:29:51.725Z,100236.42
2019-06-20T23:32:20.165Z,100233.20
2019-06-20T23:34:48.599Z,100240.59
2019-06-20T23:37:17.232Z,100240.87
2019-06-20T23:39:45.767Z,100237.65
2019-06-20T23:42:14.180Z,100237.08
2019-06-20T23:44:42.781Z,100237.61
2019-06-20T23:47:11.214Z,100237.56
2019-06-20T23:49:39.645Z,100236.91
2019-06-20T23:52:12.236Z,100240.34
2019-06-20T23:54:40.748Z,100240.93
2019-06-20T23:57:09.206Z,100247.84
2019-06-20T23:59:37.668Z,100247.66
